sensor_id;sensor_type;location;lat;lon;timestamp;temperature;humidity
66728;DHT22;53641;44.274;19.890;2024-02-23T00:02:18;13.00;71.60
66728;DHT22;53641;44.274;19.890;2024-02-23T00:04:44;13.10;72.40
66728;DHT22;53641;44.274;19.890;2024-02-23T00:07:10;13.10;72.10
66728;DHT22;53641;44.274;19.890;2024-02-23T00:09:36;13.10;72.00
66728;DHT22;53641;44.274;19.890;2024-02-23T00:12:02;13.10;71.90
66728;DHT22;53641;44.274;19.890;2024-02-23T00:14:29;13.10;72.20
66728;DHT22;53641;44.274;19.890;2024-02-23T00:16:56;13.10;72.00
66728;DHT22;53641;44.274;19.890;2024-02-23T00:19:23;13.00;72.80
66728;DHT22;53641;44.274;19.890;2024-02-23T00:21:49;13.10;73.00
66728;DHT22;53641;44.274;19.890;2024-02-23T00:24:16;13.10;72.80
66728;DHT22;53641;44.274;19.890;2024-02-23T00:26:43;13.10;72.30
66728;DHT22;53641;44.274;19.890;2024-02-23T00:29:08;13.00;72.70
66728;DHT22;53641;44.274;19.890;2024-02-23T00:31:34;13.00;72.40
66728;DHT22;53641;44.274;19.890;2024-02-23T00:34:03;13.00;72.70
66728;DHT22;53641;44.274;19.890;2024-02-23T00:36:28;13.00;73.10
66728;DHT22;53641;44.274;19.890;2024-02-23T00:38:54;13.00;73.30
66728;DHT22;53641;44.274;19.890;2024-02-23T00:41:20;13.00;73.90
66728;DHT22;53641;44.274;19.890;2024-02-23T00:43:46;13.00;73.80
66728;DHT22;53641;44.274;19.890;2024-02-23T00:46:13;13.00;73.70
66728;DHT22;53641;44.274;19.890;2024-02-23T00:48:40;13.00;72.90
66728;DHT22;53641;44.274;19.890;2024-02-23T00:51:05;13.10;72.60
66728;DHT22;53641;44.274;19.890;2024-02-23T00:53:32;13.10;72.90
66728;DHT22;53641;44.274;19.890;2024-02-23T00:55:58;13.10;71.90
66728;DHT22;53641;44.274;19.890;2024-02-23T00:58:24;13.10;72.70
66728;DHT22;53641;44.274;19.890;2024-02-23T01:00:50;13.10;71.80
66728;DHT22;53641;44.274;19.890;2024-02-23T01:03:15;13.20;71.50
66728;DHT22;53641;44.274;19.890;2024-02-23T01:05:41;13.30;72.90
66728;DHT22;53641;44.274;19.890;2024-02-23T01:08:08;13.20;72.20
66728;DHT22;53641;44.274;19.890;2024-02-23T01:10:34;13.20;72.50
66728;DHT22;53641;44.274;19.890;2024-02-23T01:13:00;13.20;73.20
66728;DHT22;53641;44.274;19.890;2024-02-23T01:15:26;13.20;73.00
66728;DHT22;53641;44.274;19.890;2024-02-23T01:17:51;13.20;72.10
66728;DHT22;53641;44.274;19.890;2024-02-23T01:20:17;13.20;73.10
66728;DHT22;53641;44.274;19.890;2024-02-23T01:22:43;13.10;73.40
66728;DHT22;53641;44.274;19.890;2024-02-23T01:25:09;13.10;73.60
66728;DHT22;53641;44.274;19.890;2024-02-23T01:27:34;13.20;72.70
66728;DHT22;53641;44.274;19.890;2024-02-23T01:30:00;13.20;72.20
66728;DHT22;53641;44.274;19.890;2024-02-23T01:32:26;13.30;72.20
66728;DHT22;53641;44.274;19.890;2024-02-23T01:34:52;13.30;73.20
66728;DHT22;53641;44.274;19.890;2024-02-23T01:37:18;13.30;72.00
66728;DHT22;53641;44.274;19.890;2024-02-23T01:39:43;13.30;72.20
66728;DHT22;53641;44.274;19.890;2024-02-23T01:42:10;13.30;72.50
66728;DHT22;53641;44.274;19.890;2024-02-23T01:44:36;13.30;72.20
66728;DHT22;53641;44.274;19.890;2024-02-23T01:47:02;13.40;72.00
66728;DHT22;53641;44.274;19.890;2024-02-23T01:49:28;13.40;72.60
66728;DHT22;53641;44.274;19.890;2024-02-23T01:52:00;13.40;72.50
66728;DHT22;53641;44.274;19.890;2024-02-23T01:54:26;13.40;72.50
66728;DHT22;53641;44.274;19.890;2024-02-23T01:56:53;13.40;72.70
66728;DHT22;53641;44.274;19.890;2024-02-23T01:59:20;13.40;72.50
66728;DHT22;53641;44.274;19.890;2024-02-23T02:01:46;13.40;73.00
66728;DHT22;53641;44.274;19.890;2024-02-23T02:04:12;13.40;72.30
66728;DHT22;53641;44.274;19.890;2024-02-23T02:06:38;13.40;72.70
66728;DHT22;53641;44.274;19.890;2024-02-23T02:09:04;13.40;72.40
66728;DHT22;53641;44.274;19.890;2024-02-23T02:11:31;13.40;73.20
66728;DHT22;53641;44.274;19.890;2024-02-23T02:13:56;13.40;73.10
66728;DHT22;53641;44.274;19.890;2024-02-23T02:16:22;13.40;72.80
66728;DHT22;53641;44.274;19.890;2024-02-23T02:18:48;13.40;72.80
66728;DHT22;53641;44.274;19.890;2024-02-23T02:21:14;13.40;73.40
66728;DHT22;53641;44.274;19.890;2024-02-23T02:23:40;13.30;73.10
66728;DHT22;53641;44.274;19.890;2024-02-23T02:26:06;13.40;73.50
66728;DHT22;53641;44.274;19.890;2024-02-23T02:28:31;13.50;73.40
66728;DHT22;53641;44.274;19.890;2024-02-23T02:30:58;13.40;73.00
66728;DHT22;53641;44.274;19.890;2024-02-23T02:33:23;13.50;73.10
66728;DHT22;53641;44.274;19.890;2024-02-23T02:35:49;13.50;73.40
66728;DHT22;53641;44.274;19.890;2024-02-23T02:38:15;13.40;73.50
66728;DHT22;53641;44.274;19.890;2024-02-23T02:40:41;13.50;73.40
66728;DHT22;53641;44.274;19.890;2024-02-23T02:43:07;13.40;73.60
66728;DHT22;53641;44.274;19.890;2024-02-23T02:45:32;13.40;73.60
66728;DHT22;53641;44.274;19.890;2024-02-23T02:48:00;13.40;73.80
66728;DHT22;53641;44.274;19.890;2024-02-23T02:50:25;13.40;74.60
66728;DHT22;53641;44.274;19.890;2024-02-23T02:52:51;13.30;73.80
66728;DHT22;53641;44.274;19.890;2024-02-23T02:55:17;13.30;73.90
66728;DHT22;53641;44.274;19.890;2024-02-23T02:57:44;13.40;73.70
66728;DHT22;53641;44.274;19.890;2024-02-23T03:00:11;13.40;73.50
66728;DHT22;53641;44.274;19.890;2024-02-23T03:02:36;13.40;73.60
66728;DHT22;53641;44.274;19.890;2024-02-23T03:05:02;13.40;73.50
66728;DHT22;53641;44.274;19.890;2024-02-23T03:07:28;13.50;73.80
66728;DHT22;53641;44.274;19.890;2024-02-23T03:09:54;13.50;73.70
66728;DHT22;53641;44.274;19.890;2024-02-23T03:12:20;13.40;73.60
66728;DHT22;53641;44.274;19.890;2024-02-23T03:14:46;13.50;73.70
66728;DHT22;53641;44.274;19.890;2024-02-23T03:17:12;13.50;73.50
66728;DHT22;53641;44.274;19.890;2024-02-23T03:19:38;13.40;73.70
66728;DHT22;53641;44.274;19.890;2024-02-23T03:22:04;13.50;73.60
66728;DHT22;53641;44.274;19.890;2024-02-23T03:24:30;13.50;73.40
66728;DHT22;53641;44.274;19.890;2024-02-23T03:26:55;13.50;73.20
66728;DHT22;53641;44.274;19.890;2024-02-23T03:29:22;13.60;73.80
66728;DHT22;53641;44.274;19.890;2024-02-23T03:31:54;13.60;73.30
66728;DHT22;53641;44.274;19.890;2024-02-23T03:34:20;13.50;73.40
66728;DHT22;53641;44.274;19.890;2024-02-23T03:36:46;13.50;73.40
66728;DHT22;53641;44.274;19.890;2024-02-23T03:39:12;13.50;74.20
66728;DHT22;53641;44.274;19.890;2024-02-23T03:41:37;13.50;73.50
66728;DHT22;53641;44.274;19.890;2024-02-23T03:44:03;13.50;73.90
66728;DHT22;53641;44.274;19.890;2024-02-23T03:46:29;13.50;73.90
66728;DHT22;53641;44.274;19.890;2024-02-23T03:48:55;13.50;73.70
66728;DHT22;53641;44.274;19.890;2024-02-23T03:51:21;13.50;73.90
66728;DHT22;53641;44.274;19.890;2024-02-23T03:53:47;13.50;73.80
66728;DHT22;53641;44.274;19.890;2024-02-23T03:56:13;13.40;73.90
66728;DHT22;53641;44.274;19.890;2024-02-23T03:58:39;13.50;74.00
66728;DHT22;53641;44.274;19.890;2024-02-23T04:01:04;13.40;74.10
66728;DHT22;53641;44.274;19.890;2024-02-23T04:03:30;13.40;74.20
66728;DHT22;53641;44.274;19.890;2024-02-23T04:05:56;13.50;73.90
66728;DHT22;53641;44.274;19.890;2024-02-23T04:08:22;13.50;74.10
66728;DHT22;53641;44.274;19.890;2024-02-23T04:10:47;13.40;74.20
66728;DHT22;53641;44.274;19.890;2024-02-23T04:13:13;13.40;74.20
66728;DHT22;53641;44.274;19.890;2024-02-23T04:15:39;13.40;74.30
66728;DHT22;53641;44.274;19.890;2024-02-23T04:18:05;13.40;74.20
66728;DHT22;53641;44.274;19.890;2024-02-23T04:20:31;13.40;74.30
66728;DHT22;53641;44.274;19.890;2024-02-23T04:22:58;13.40;74.30
66728;DHT22;53641;44.274;19.890;2024-02-23T04:25:24;13.40;74.20
66728;DHT22;53641;44.274;19.890;2024-02-23T04:27:49;13.40;74.20
66728;DHT22;53641;44.274;19.890;2024-02-23T04:30:15;13.40;74.20
66728;DHT22;53641;44.274;19.890;2024-02-23T04:32:41;13.40;74.40
66728;DHT22;53641;44.274;19.890;2024-02-23T04:35:08;13.40;74.30
66728;DHT22;53641;44.274;19.890;2024-02-23T04:37:34;13.40;74.50
66728;DHT22;53641;44.274;19.890;2024-02-23T04:40:00;13.40;74.40
66728;DHT22;53641;44.274;19.890;2024-02-23T04:42:25;13.40;74.50
66728;DHT22;53641;44.274;19.890;2024-02-23T04:44:51;13.40;74.30
66728;DHT22;53641;44.274;19.890;2024-02-23T04:47:20;13.40;74.30
66728;DHT22;53641;44.274;19.890;2024-02-23T04:49:45;13.40;74.40
66728;DHT22;53641;44.274;19.890;2024-02-23T04:52:11;13.40;74.60
66728;DHT22;53641;44.274;19.890;2024-02-23T04:54:37;13.40;74.70
66728;DHT22;53641;44.274;19.890;2024-02-23T04:57:03;13.40;74.70
66728;DHT22;53641;44.274;19.890;2024-02-23T04:59:28;13.30;74.80
66728;DHT22;53641;44.274;19.890;2024-02-23T05:01:57;13.40;74.90
66728;DHT22;53641;44.274;19.890;2024-02-23T05:04:23;13.40;74.90
66728;DHT22;53641;44.274;19.890;2024-02-23T05:06:48;13.40;75.40
66728;DHT22;53641;44.274;19.890;2024-02-23T05:09:14;13.30;75.40
66728;DHT22;53641;44.274;19.890;2024-02-23T05:11:40;13.40;75.60
66728;DHT22;53641;44.274;19.890;2024-02-23T05:14:06;13.40;75.50
66728;DHT22;53641;44.274;19.890;2024-02-23T05:16:32;13.40;75.30
66728;DHT22;53641;44.274;19.890;2024-02-23T05:18:57;13.40;75.70
66728;DHT22;53641;44.274;19.890;2024-02-23T05:21:23;13.40;75.80
66728;DHT22;53641;44.274;19.890;2024-02-23T05:23:51;13.50;76.30
66728;DHT22;53641;44.274;19.890;2024-02-23T05:26:17;13.50;78.30
66728;DHT22;53641;44.274;19.890;2024-02-23T05:28:43;13.40;78.30
66728;DHT22;53641;44.274;19.890;2024-02-23T05:31:09;13.40;78.70
66728;DHT22;53641;44.274;19.890;2024-02-23T05:33:35;13.40;78.60
66728;DHT22;53641;44.274;19.890;2024-02-23T05:36:02;13.50;80.40
66728;DHT22;53641;44.274;19.890;2024-02-23T05:38:28;13.40;80.30
66728;DHT22;53641;44.274;19.890;2024-02-23T05:40:54;13.30;80.60
66728;DHT22;53641;44.274;19.890;2024-02-23T05:43:20;13.20;81.60
66728;DHT22;53641;44.274;19.890;2024-02-23T05:45:46;13.20;83.10
66728;DHT22;53641;44.274;19.890;2024-02-23T05:48:11;13.10;86.60
66728;DHT22;53641;44.274;19.890;2024-02-23T05:50:37;13.00;88.00
66728;DHT22;53641;44.274;19.890;2024-02-23T05:53:03;13.00;83.10
66728;DHT22;53641;44.274;19.890;2024-02-23T05:55:30;13.00;86.70
66728;DHT22;53641;44.274;19.890;2024-02-23T05:57:56;13.00;88.10
66728;DHT22;53641;44.274;19.890;2024-02-23T06:00:21;12.90;86.80
66728;DHT22;53641;44.274;19.890;2024-02-23T06:02:47;13.10;83.10
66728;DHT22;53641;44.274;19.890;2024-02-23T06:05:13;13.10;85.60
66728;DHT22;53641;44.274;19.890;2024-02-23T06:07:41;13.10;84.50
66728;DHT22;53641;44.274;19.890;2024-02-23T06:10:07;13.20;83.10
66728;DHT22;53641;44.274;19.890;2024-02-23T06:12:33;13.20;80.40
66728;DHT22;53641;44.274;19.890;2024-02-23T06:14:59;13.30;83.30
66728;DHT22;53641;44.274;19.890;2024-02-23T06:17:24;13.40;81.40
66728;DHT22;53641;44.274;19.890;2024-02-23T06:19:50;13.40;81.20
66728;DHT22;53641;44.274;19.890;2024-02-23T06:22:18;13.40;81.40
66728;DHT22;53641;44.274;19.890;2024-02-23T06:24:47;13.50;82.10
66728;DHT22;53641;44.274;19.890;2024-02-23T06:27:13;13.50;82.80
66728;DHT22;53641;44.274;19.890;2024-02-23T06:29:38;13.60;82.40
66728;DHT22;53641;44.274;19.890;2024-02-23T06:32:05;13.50;82.30
66728;DHT22;53641;44.274;19.890;2024-02-23T06:34:31;13.50;82.00
66728;DHT22;53641;44.274;19.890;2024-02-23T06:36:57;13.50;82.60
66728;DHT22;53641;44.274;19.890;2024-02-23T06:39:23;13.50;85.00
66728;DHT22;53641;44.274;19.890;2024-02-23T06:41:48;13.60;84.30
66728;DHT22;53641;44.274;19.890;2024-02-23T06:44:14;13.50;84.90
66728;DHT22;53641;44.274;19.890;2024-02-23T06:46:43;13.50;84.00
66728;DHT22;53641;44.274;19.890;2024-02-23T06:49:10;13.50;84.30
66728;DHT22;53641;44.274;19.890;2024-02-23T06:51:35;13.50;84.40
66728;DHT22;53641;44.274;19.890;2024-02-23T06:54:01;13.40;83.30
66728;DHT22;53641;44.274;19.890;2024-02-23T06:56:29;13.50;80.70
66728;DHT22;53641;44.274;19.890;2024-02-23T06:59:15;13.60;81.60
66728;DHT22;53641;44.274;19.890;2024-02-23T07:02:01;13.70;81.10
66728;DHT22;53641;44.274;19.890;2024-02-23T07:10:40;13.80;83.00
66728;DHT22;53641;44.274;19.890;2024-02-23T07:13:06;13.90;81.00
66728;DHT22;53641;44.274;19.890;2024-02-23T07:15:32;13.90;81.90
66728;DHT22;53641;44.274;19.890;2024-02-23T07:17:58;14.10;81.30
66728;DHT22;53641;44.274;19.890;2024-02-23T07:20:44;14.10;80.10
